sensor_id;sensor_type;location;lat;lon;timestamp;temperature;humidity
12438;DHT22;6283;51.330;12.374;2023-04-15T00:02:14;7.90;99.90
12438;DHT22;6283;51.330;12.374;2023-04-15T00:04:40;7.60;99.90
12438;DHT22;6283;51.330;12.374;2023-04-15T00:07:06;7.90;1.00
12438;DHT22;6283;51.330;12.374;2023-04-15T00:09:31;7.60;1.00
12438;DHT22;6283;51.330;12.374;2023-04-15T00:11:57;7.70;99.90
12438;DHT22;6283;51.330;12.374;2023-04-15T00:14:23;7.60;1.00
12438;DHT22;6283;51.330;12.374;2023-04-15T00:16:48;7.50;1.00
12438;DHT22;6283;51.330;12.374;2023-04-15T00:19:19;7.60;1.00
12438;DHT22;6283;51.330;12.374;2023-04-15T00:21:45;7.50;1.00
12438;DHT22;6283;51.330;12.374;2023-04-15T00:24:11;7.50;99.90
12438;DHT22;6283;51.330;12.374;2023-04-15T00:26:37;7.30;99.90
12438;DHT22;6283;51.330;12.374;2023-04-15T00:29:03;7.20;1.00
12438;DHT22;6283;51.330;12.374;2023-04-15T00:31:30;7.30;1.00
12438;DHT22;6283;51.330;12.374;2023-04-15T00:33:56;7.20;1.00
12438;DHT22;6283;51.330;12.374;2023-04-15T00:36:21;7.10;1.00
12438;DHT22;6283;51.330;12.374;2023-04-15T00:38:47;7.40;99.90
12438;DHT22;6283;51.330;12.374;2023-04-15T00:41:13;7.20;99.90
12438;DHT22;6283;51.330;12.374;2023-04-15T00:43:39;7.30;1.00
12438;DHT22;6283;51.330;12.374;2023-04-15T00:46:06;7.20;1.00
12438;DHT22;6283;51.330;12.374;2023-04-15T00:48:32;7.60;99.90
12438;DHT22;6283;51.330;12.374;2023-04-15T00:50:57;7.40;99.90
12438;DHT22;6283;51.330;12.374;2023-04-15T00:53:23;7.20;99.90
12438;DHT22;6283;51.330;12.374;2023-04-15T00:55:49;7.50;99.90
12438;DHT22;6283;51.330;12.374;2023-04-15T00:58:15;7.30;99.90
12438;DHT22;6283;51.330;12.374;2023-04-15T01:00:42;7.30;99.90
12438;DHT22;6283;51.330;12.374;2023-04-15T01:03:07;7.40;1.00
12438;DHT22;6283;51.330;12.374;2023-04-15T01:05:34;7.50;1.00
12438;DHT22;6283;51.330;12.374;2023-04-15T01:08:01;7.10;1.00
12438;DHT22;6283;51.330;12.374;2023-04-15T01:10:26;7.00;1.00
12438;DHT22;6283;51.330;12.374;2023-04-15T01:12:53;7.10;1.00
12438;DHT22;6283;51.330;12.374;2023-04-15T01:15:19;7.10;1.00
12438;DHT22;6283;51.330;12.374;2023-04-15T01:17:45;7.10;1.00
12438;DHT22;6283;51.330;12.374;2023-04-15T01:20:12;7.40;1.00
12438;DHT22;6283;51.330;12.374;2023-04-15T01:22:37;7.10;1.00
12438;DHT22;6283;51.330;12.374;2023-04-15T01:25:11;7.40;1.00
12438;DHT22;6283;51.330;12.374;2023-04-15T01:27:40;7.30;1.00
12438;DHT22;6283;51.330;12.374;2023-04-15T01:30:07;7.20;15.00
12438;DHT22;6283;51.330;12.374;2023-04-15T01:32:33;7.10;99.90
12438;DHT22;6283;51.330;12.374;2023-04-15T01:34:59;7.00;99.90
12438;DHT22;6283;51.330;12.374;2023-04-15T01:37:24;7.10;99.90
12438;DHT22;6283;51.330;12.374;2023-04-15T01:39:50;7.20;1.00
12438;DHT22;6283;51.330;12.374;2023-04-15T01:42:16;7.30;1.00
12438;DHT22;6283;51.330;12.374;2023-04-15T01:44:42;7.20;1.00
12438;DHT22;6283;51.330;12.374;2023-04-15T01:47:07;7.00;1.00
12438;DHT22;6283;51.330;12.374;2023-04-15T01:49:33;7.10;1.00
12438;DHT22;6283;51.330;12.374;2023-04-15T01:51:59;7.00;1.00
12438;DHT22;6283;51.330;12.374;2023-04-15T01:54:25;7.30;1.00
12438;DHT22;6283;51.330;12.374;2023-04-15T01:56:52;7.00;1.00
12438;DHT22;6283;51.330;12.374;2023-04-15T01:59:17;7.10;1.00
12438;DHT22;6283;51.330;12.374;2023-04-15T02:01:43;7.00;1.00
12438;DHT22;6283;51.330;12.374;2023-04-15T02:04:10;7.20;1.00
12438;DHT22;6283;51.330;12.374;2023-04-15T02:06:44;7.00;1.00
12438;DHT22;6283;51.330;12.374;2023-04-15T02:09:10;7.10;1.00
12438;DHT22;6283;51.330;12.374;2023-04-15T02:11:36;7.00;1.00
12438;DHT22;6283;51.330;12.374;2023-04-15T02:14:02;7.00;1.00
12438;DHT22;6283;51.330;12.374;2023-04-15T02:16:31;7.10;8.60
12438;DHT22;6283;51.330;12.374;2023-04-15T02:18:58;7.20;1.00
12438;DHT22;6283;51.330;12.374;2023-04-15T02:21:25;7.00;1.00
12438;DHT22;6283;51.330;12.374;2023-04-15T02:23:51;7.20;1.00
12438;DHT22;6283;51.330;12.374;2023-04-15T02:26:18;7.10;1.00
12438;DHT22;6283;51.330;12.374;2023-04-15T02:28:44;7.20;1.00
12438;DHT22;6283;51.330;12.374;2023-04-15T02:31:09;7.10;3.90
12438;DHT22;6283;51.330;12.374;2023-04-15T02:33:35;7.20;1.30
12438;DHT22;6283;51.330;12.374;2023-04-15T02:36:02;7.20;4.00
12438;DHT22;6283;51.330;12.374;2023-04-15T02:38:28;7.10;35.10
12438;DHT22;6283;51.330;12.374;2023-04-15T02:40:53;7.00;99.90
12438;DHT22;6283;51.330;12.374;2023-04-15T02:43:19;6.90;99.90
12438;DHT22;6283;51.330;12.374;2023-04-15T02:45:45;6.90;99.90
12438;DHT22;6283;51.330;12.374;2023-04-15T02:48:11;7.10;99.90
12438;DHT22;6283;51.330;12.374;2023-04-15T02:50:37;7.00;99.90
12438;DHT22;6283;51.330;12.374;2023-04-15T02:53:07;6.80;99.90
12438;DHT22;6283;51.330;12.374;2023-04-15T02:55:32;6.90;99.90
12438;DHT22;6283;51.330;12.374;2023-04-15T02:57:58;7.00;99.90
12438;DHT22;6283;51.330;12.374;2023-04-15T03:00:25;7.20;99.90
12438;DHT22;6283;51.330;12.374;2023-04-15T03:02:57;6.90;99.90
12438;DHT22;6283;51.330;12.374;2023-04-15T03:05:23;6.90;99.90
12438;DHT22;6283;51.330;12.374;2023-04-15T03:07:51;7.10;99.90
12438;DHT22;6283;51.330;12.374;2023-04-15T03:10:17;7.00;99.90
12438;DHT22;6283;51.330;12.374;2023-04-15T03:12:43;7.30;99.90
12438;DHT22;6283;51.330;12.374;2023-04-15T03:15:09;7.00;99.90
12438;DHT22;6283;51.330;12.374;2023-04-15T03:17:34;7.10;99.90
12438;DHT22;6283;51.330;12.374;2023-04-15T03:20:01;7.10;99.90
12438;DHT22;6283;51.330;12.374;2023-04-15T03:22:29;7.10;99.90
12438;DHT22;6283;51.330;12.374;2023-04-15T03:24:55;7.10;99.90
12438;DHT22;6283;51.330;12.374;2023-04-15T03:27:21;7.20;99.90
12438;DHT22;6283;51.330;12.374;2023-04-15T03:29:46;7.00;99.90
12438;DHT22;6283;51.330;12.374;2023-04-15T03:32:12;7.00;99.90
12438;DHT22;6283;51.330;12.374;2023-04-15T03:34:42;7.00;99.90
12438;DHT22;6283;51.330;12.374;2023-04-15T03:37:08;7.20;99.90
12438;DHT22;6283;51.330;12.374;2023-04-15T03:39:34;7.10;99.90
12438;DHT22;6283;51.330;12.374;2023-04-15T03:42:00;7.20;99.90
12438;DHT22;6283;51.330;12.374;2023-04-15T03:44:26;7.10;99.90
12438;DHT22;6283;51.330;12.374;2023-04-15T03:46:52;7.20;99.90
12438;DHT22;6283;51.330;12.374;2023-04-15T03:49:17;7.00;99.90
12438;DHT22;6283;51.330;12.374;2023-04-15T03:51:43;6.90;99.90
12438;DHT22;6283;51.330;12.374;2023-04-15T03:54:09;7.30;99.90
12438;DHT22;6283;51.330;12.374;2023-04-15T03:56:36;7.10;99.90
12438;DHT22;6283;51.330;12.374;2023-04-15T03:59:02;7.10;99.90
12438;DHT22;6283;51.330;12.374;2023-04-15T04:01:27;7.10;99.90
12438;DHT22;6283;51.330;12.374;2023-04-15T04:03:53;7.10;99.90
12438;DHT22;6283;51.330;12.374;2023-04-15T04:06:19;7.00;99.90
12438;DHT22;6283;51.330;12.374;2023-04-15T04:08:44;7.00;99.90
12438;DHT22;6283;51.330;12.374;2023-04-15T04:11:10;6.80;99.90
12438;DHT22;6283;51.330;12.374;2023-04-15T04:13:36;7.20;99.90
12438;DHT22;6283;51.330;12.374;2023-04-15T04:16:01;7.20;99.90
12438;DHT22;6283;51.330;12.374;2023-04-15T04:18:30;6.90;99.90
12438;DHT22;6283;51.330;12.374;2023-04-15T04:20:55;7.20;99.90
12438;DHT22;6283;51.330;12.374;2023-04-15T04:23:21;7.10;99.90
12438;DHT22;6283;51.330;12.374;2023-04-15T04:25:47;7.10;99.90
12438;DHT22;6283;51.330;12.374;2023-04-15T04:28:13;7.10;99.90
12438;DHT22;6283;51.330;12.374;2023-04-15T04:30:39;7.10;99.90
12438;DHT22;6283;51.330;12.374;2023-04-15T04:33:06;7.10;99.90
12438;DHT22;6283;51.330;12.374;2023-04-15T04:35:31;7.00;99.90
12438;DHT22;6283;51.330;12.374;2023-04-15T04:37:59;7.10;99.90
12438;DHT22;6283;51.330;12.374;2023-04-15T04:40:25;7.10;99.90
12438;DHT22;6283;51.330;12.374;2023-04-15T04:42:52;7.20;99.90
12438;DHT22;6283;51.330;12.374;2023-04-15T04:45:17;7.20;99.90
12438;DHT22;6283;51.330;12.374;2023-04-15T04:47:43;7.20;99.90
12438;DHT22;6283;51.330;12.374;2023-04-15T04:50:09;7.30;99.90
12438;DHT22;6283;51.330;12.374;2023-04-15T04:52:36;7.30;99.90
12438;DHT22;6283;51.330;12.374;2023-04-15T04:55:01;7.00;99.90
12438;DHT22;6283;51.330;12.374;2023-04-15T04:57:27;7.10;99.90
12438;DHT22;6283;51.330;12.374;2023-04-15T04:59:53;7.10;99.90
12438;DHT22;6283;51.330;12.374;2023-04-15T05:02:18;7.20;99.90
12438;DHT22;6283;51.330;12.374;2023-04-15T05:04:44;7.30;99.90
12438;DHT22;6283;51.330;12.374;2023-04-15T05:07:09;7.20;99.90
12438;DHT22;6283;51.330;12.374;2023-04-15T05:09:35;7.30;99.90
12438;DHT22;6283;51.330;12.374;2023-04-15T05:12:05;7.40;99.90
12438;DHT22;6283;51.330;12.374;2023-04-15T05:14:30;7.10;99.90
12438;DHT22;6283;51.330;12.374;2023-04-15T05:16:56;7.10;99.90
12438;DHT22;6283;51.330;12.374;2023-04-15T05:19:22;7.30;99.90
12438;DHT22;6283;51.330;12.374;2023-04-15T05:21:47;7.40;99.90
12438;DHT22;6283;51.330;12.374;2023-04-15T05:24:13;7.20;99.90
12438;DHT22;6283;51.330;12.374;2023-04-15T05:26:39;7.20;99.90
12438;DHT22;6283;51.330;12.374;2023-04-15T05:29:04;7.20;99.90
12438;DHT22;6283;51.330;12.374;2023-04-15T05:31:30;7.30;99.90
12438;DHT22;6283;51.330;12.374;2023-04-15T05:33:56;7.40;99.90
12438;DHT22;6283;51.330;12.374;2023-04-15T05:36:21;7.40;99.90
12438;DHT22;6283;51.330;12.374;2023-04-15T05:38:47;7.40;99.90
12438;DHT22;6283;51.330;12.374;2023-04-15T05:41:13;7.20;99.90
12438;DHT22;6283;51.330;12.374;2023-04-15T05:43:40;7.40;99.90
12438;DHT22;6283;51.330;12.374;2023-04-15T05:46:06;7.40;99.90
12438;DHT22;6283;51.330;12.374;2023-04-15T05:48:32;7.40;99.90
12438;DHT22;6283;51.330;12.374;2023-04-15T05:50:59;7.50;99.90
12438;DHT22;6283;51.330;12.374;2023-04-15T05:53:25;7.30;99.90
12438;DHT22;6283;51.330;12.374;2023-04-15T05:55:50;7.30;99.90
12438;DHT22;6283;51.330;12.374;2023-04-15T05:58:16;7.40;99.90
12438;DHT22;6283;51.330;12.374;2023-04-15T06:00:42;7.50;99.90
12438;DHT22;6283;51.330;12.374;2023-04-15T06:03:08;7.50;99.90
12438;DHT22;6283;51.330;12.374;2023-04-15T06:05:33;7.40;99.90
12438;DHT22;6283;51.330;12.374;2023-04-15T06:07:59;7.40;99.90
12438;DHT22;6283;51.330;12.374;2023-04-15T06:10:24;7.40;99.90
12438;DHT22;6283;51.330;12.374;2023-04-15T06:12:52;7.30;99.90
12438;DHT22;6283;51.330;12.374;2023-04-15T06:15:17;7.40;99.90
12438;DHT22;6283;51.330;12.374;2023-04-15T06:17:43;7.40;99.90
12438;DHT22;6283;51.330;12.374;2023-04-15T06:20:10;7.60;99.90
12438;DHT22;6283;51.330;12.374;2023-04-15T06:22:36;7.50;99.90
12438;DHT22;6283;51.330;12.374;2023-04-15T06:25:03;7.40;99.90
12438;DHT22;6283;51.330;12.374;2023-04-15T06:27:29;7.60;99.90
12438;DHT22;6283;51.330;12.374;2023-04-15T06:29:55;7.40;99.90
12438;DHT22;6283;51.330;12.374;2023-04-15T06:32:21;7.40;99.90
12438;DHT22;6283;51.330;12.374;2023-04-15T06:34:46;7.60;99.90
12438;DHT22;6283;51.330;12.374;2023-04-15T06:37:12;7.70;99.90
12438;DHT22;6283;51.330;12.374;2023-04-15T06:39:41;7.70;99.90
12438;DHT22;6283;51.330;12.374;2023-04-15T06:42:07;7.60;99.90
12438;DHT22;6283;51.330;12.374;2023-04-15T06:44:33;7.70;99.90
12438;DHT22;6283;51.330;12.374;2023-04-15T06:46:59;7.70;99.90
12438;DHT22;6283;51.330;12.374;2023-04-15T06:49:25;7.80;99.90
12438;DHT22;6283;51.330;12.374;2023-04-15T06:51:51;7.80;99.90
12438;DHT22;6283;51.330;12.374;2023-04-15T06:54:17;7.90;99.90
12438;DHT22;6283;51.330;12.374;2023-04-15T06:56:42;7.70;99.90
12438;DHT22;6283;51.330;12.374;2023-04-15T06:59:08;7.70;99.90
12438;DHT22;6283;51.330;12.374;2023-04-15T07:01:34;8.00;99.90
12438;DHT22;6283;51.330;12.374;2023-04-15T07:04:00;7.70;99.90
12438;DHT22;6283;51.330;12.374;2023-04-15T07:06:26;7.80;99.90
12438;DHT22;6283;51.330;12.374;2023-04-15T07:08:52;7.80;99.90
12438;DHT22;6283;51.330;12.374;2023-04-15T07:11:19;7.90;99.90
12438;DHT22;6283;51.330;12.374;2023-04-15T07:13:45;7.90;99.90
12438;DHT22;6283;51.330;12.374;2023-04-15T07:16:11;8.00;99.90
12438;DHT22;6283;51.330;12.374;2023-04-15T07:18:36;7.80;1.00
12438;DHT22;6283;51.330;12.374;2023-04-15T07:21:02;7.90;1.00
12438;DHT22;6283;51.330;12.374;2023-04-15T07:23:28;7.90;1.00
12438;DHT22;6283;51.330;12.374;2023-04-15T07:25:53;8.00;1.00
12438;DHT22;6283;51.330;12.374;2023-04-15T07:28:19;8.20;1.00
12438;DHT22;6283;51.330;12.374;2023-04-15T07:30:45;7.90;1.00
12438;DHT22;6283;51.330;12.374;2023-04-15T07:33:11;8.00;1.00
12438;DHT22;6283;51.330;12.374;2023-04-15T07:35:36;8.10;1.40
12438;DHT22;6283;51.330;12.374;2023-04-15T07:38:02;8.20;1.40
12438;DHT22;6283;51.330;12.374;2023-04-15T07:40:28;8.20;99.90
12438;DHT22;6283;51.330;12.374;2023-04-15T07:42:55;8.00;99.90
12438;DHT22;6283;51.330;12.374;2023-04-15T07:45:22;8.30;99.90
12438;DHT22;6283;51.330;12.374;2023-04-15T07:47:48;8.20;99.90
12438;DHT22;6283;51.330;12.374;2023-04-15T07:50:15;8.30;99.90
12438;DHT22;6283;51.330;12.374;2023-04-15T07:52:42;8.10;1.00
12438;DHT22;6283;51.330;12.374;2023-04-15T07:55:08;8.40;1.00
12438;DHT22;6283;51.330;12.374;2023-04-15T07:57:35;8.30;1.00
12438;DHT22;6283;51.330;12.374;2023-04-15T08:00:02;8.10;1.00
12438;DHT22;6283;51.330;12.374;2023-04-15T08:02:30;8.10;1.00
12438;DHT22;6283;51.330;12.374;2023-04-15T08:04:56;8.30;1.00
12438;DHT22;6283;51.330;12.374;2023-04-15T08:07:22;8.50;1.00
12438;DHT22;6283;51.330;12.374;2023-04-15T08:09:48;8.20;1.00
12438;DHT22;6283;51.330;12.374;2023-04-15T08:12:13;8.40;1.00
12438;DHT22;6283;51.330;12.374;2023-04-15T08:14:40;8.30;1.00
12438;DHT22;6283;51.330;12.374;2023-04-15T08:17:06;8.30;1.00
12438;DHT22;6283;51.330;12.374;2023-04-15T08:19:31;8.40;1.00
12438;DHT22;6283;51.330;12.374;2023-04-15T08:21:57;8.30;1.00
12438;DHT22;6283;51.330;12.374;2023-04-15T08:24:25;8.30;1.00
12438;DHT22;6283;51.330;12.374;2023-04-15T08:26:51;8.20;1.00
12438;DHT22;6283;51.330;12.374;2023-04-15T08:29:17;8.40;1.00
12438;DHT22;6283;51.330;12.374;2023-04-15T08:31:43;8.40;1.00
12438;DHT22;6283;51.330;12.374;2023-04-15T08:34:10;8.40;1.00
12438;DHT22;6283;51.330;12.374;2023-04-15T08:36:36;8.70;1.00
12438;DHT22;6283;51.330;12.374;2023-04-15T08:39:01;8.30;1.00
12438;DHT22;6283;51.330;12.374;2023-04-15T08:41:40;8.50;1.00
12438;DHT22;6283;51.330;12.374;2023-04-15T08:44:06;8.30;1.00
12438;DHT22;6283;51.330;12.374;2023-04-15T08:46:33;8.40;1.00
12438;DHT22;6283;51.330;12.374;2023-04-15T08:49:03;8.60;1.00
12438;DHT22;6283;51.330;12.374;2023-04-15T08:51:30;8.40;1.00
12438;DHT22;6283;51.330;12.374;2023-04-15T08:53:56;8.50;1.00
12438;DHT22;6283;51.330;12.374;2023-04-15T08:56:24;8.80;1.00
12438;DHT22;6283;51.330;12.374;2023-04-15T08:58:51;8.70;1.00
12438;DHT22;6283;51.330;12.374;2023-04-15T09:01:17;8.80;1.00
12438;DHT22;6283;51.330;12.374;2023-04-15T09:03:43;9.00;1.00
12438;DHT22;6283;51.330;12.374;2023-04-15T09:06:09;8.90;1.00
12438;DHT22;6283;51.330;12.374;2023-04-15T09:08:36;8.70;1.00
12438;DHT22;6283;51.330;12.374;2023-04-15T09:11:04;9.00;1.00
12438;DHT22;6283;51.330;12.374;2023-04-15T09:13:30;9.00;1.00
12438;DHT22;6283;51.330;12.374;2023-04-15T09:15:56;8.90;1.00
12438;DHT22;6283;51.330;12.374;2023-04-15T09:18:33;9.20;1.00
12438;DHT22;6283;51.330;12.374;2023-04-15T09:21:13;8.90;1.00
12438;DHT22;6283;51.330;12.374;2023-04-15T09:23:59;9.10;1.00
12438;DHT22;6283;51.330;12.374;2023-04-15T09:26:35;9.20;1.00
12438;DHT22;6283;51.330;12.374;2023-04-15T09:29:06;9.20;1.00
12438;DHT22;6283;51.330;12.374;2023-04-15T09:31:32;9.40;1.00
12438;DHT22;6283;51.330;12.374;2023-04-15T09:33:58;9.20;1.00
12438;DHT22;6283;51.330;12.374;2023-04-15T09:36:24;9.40;1.00
12438;DHT22;6283;51.330;12.374;2023-04-15T09:38:59;9.40;1.00
12438;DHT22;6283;51.330;12.374;2023-04-15T09:41:26;9.50;1.00
12438;DHT22;6283;51.330;12.374;2023-04-15T09:43:52;9.30;1.00
12438;DHT22;6283;51.330;12.374;2023-04-15T09:46:44;9.40;1.00
12438;DHT22;6283;51.330;12.374;2023-04-15T09:49:11;9.50;1.00
12438;DHT22;6283;51.330;12.374;2023-04-15T09:51:37;9.50;1.00
12438;DHT22;6283;51.330;12.374;2023-04-15T09:54:03;9.50;1.00
12438;DHT22;6283;51.330;12.374;2023-04-15T09:56:36;9.50;1.00
12438;DHT22;6283;51.330;12.374;2023-04-15T09:59:04;9.50;1.00
12438;DHT22;6283;51.330;12.374;2023-04-15T10:01:30;9.80;1.00
12438;DHT22;6283;51.330;12.374;2023-04-15T10:03:56;9.70;1.00
12438;DHT22;6283;51.330;12.374;2023-04-15T10:06:25;9.50;1.00
12438;DHT22;6283;51.330;12.374;2023-04-15T10:08:51;9.60;1.00
12438;DHT22;6283;51.330;12.374;2023-04-15T10:11:18;9.70;1.00
12438;DHT22;6283;51.330;12.374;2023-04-15T10:13:46;9.70;1.00
12438;DHT22;6283;51.330;12.374;2023-04-15T10:16:14;10.00;1.00
12438;DHT22;6283;51.330;12.374;2023-04-15T10:18:46;9.80;1.00
12438;DHT22;6283;51.330;12.374;2023-04-15T10:21:13;9.70;1.00
12438;DHT22;6283;51.330;12.374;2023-04-15T10:23:41;9.90;1.00
12438;DHT22;6283;51.330;12.374;2023-04-15T10:26:07;9.70;1.00
12438;DHT22;6283;51.330;12.374;2023-04-15T10:28:34;10.10;1.00
12438;DHT22;6283;51.330;12.374;2023-04-15T10:31:00;10.20;1.00
12438;DHT22;6283;51.330;12.374;2023-04-15T10:33:27;9.90;1.00
12438;DHT22;6283;51.330;12.374;2023-04-15T10:35:55;10.10;1.00
12438;DHT22;6283;51.330;12.374;2023-04-15T10:38:31;10.20;1.00
12438;DHT22;6283;51.330;12.374;2023-04-15T10:43:55;10.30;1.00
12438;DHT22;6283;51.330;12.374;2023-04-15T10:46:41;10.30;1.00
12438;DHT22;6283;51.330;12.374;2023-04-15T10:51:32;10.50;1.00
12438;DHT22;6283;51.330;12.374;2023-04-15T10:53:58;10.50;1.00
12438;DHT22;6283;51.330;12.374;2023-04-15T10:56:24;10.60;1.00
12438;DHT22;6283;51.330;12.374;2023-04-15T10:58:50;10.50;1.00
12438;DHT22;6283;51.330;12.374;2023-04-15T11:01:18;10.50;1.00
12438;DHT22;6283;51.330;12.374;2023-04-15T11:03:45;10.50;1.00
12438;DHT22;6283;51.330;12.374;2023-04-15T11:06:10;10.60;1.00
12438;DHT22;6283;51.330;12.374;2023-04-15T11:08:56;10.70;1.00
12438;DHT22;6283;51.330;12.374;2023-04-15T11:11:43;10.70;1.00
12438;DHT22;6283;51.330;12.374;2023-04-15T11:14:14;10.80;1.00
12438;DHT22;6283;51.330;12.374;2023-04-15T11:16:42;10.60;1.00
12438;DHT22;6283;51.330;12.374;2023-04-15T11:19:11;10.90;1.00
12438;DHT22;6283;51.330;12.374;2023-04-15T11:21:36;10.80;1.00
12438;DHT22;6283;51.330;12.374;2023-04-15T11:24:02;10.60;1.00
12438;DHT22;6283;51.330;12.374;2023-04-15T11:26:28;10.80;1.00
12438;DHT22;6283;51.330;12.374;2023-04-15T11:28:54;10.90;1.00
12438;DHT22;6283;51.330;12.374;2023-04-15T11:31:19;10.90;99.90
12438;DHT22;6283;51.330;12.374;2023-04-15T11:33:57;11.00;99.90
12438;DHT22;6283;51.330;12.374;2023-04-15T11:36:28;10.90;99.90
12438;DHT22;6283;51.330;12.374;2023-04-15T11:38:56;10.90;99.90
12438;DHT22;6283;51.330;12.374;2023-04-15T11:41:24;11.00;1.00
12438;DHT22;6283;51.330;12.374;2023-04-15T11:43:51;10.90;99.90
12438;DHT22;6283;51.330;12.374;2023-04-15T11:46:17;10.70;99.90
12438;DHT22;6283;51.330;12.374;2023-04-15T11:48:45;10.90;99.90
12438;DHT22;6283;51.330;12.374;2023-04-15T11:51:11;11.10;99.90
12438;DHT22;6283;51.330;12.374;2023-04-15T11:53:46;11.00;1.00
12438;DHT22;6283;51.330;12.374;2023-04-15T11:56:19;11.10;1.00
12438;DHT22;6283;51.330;12.374;2023-04-15T11:58:45;10.90;1.00
12438;DHT22;6283;51.330;12.374;2023-04-15T12:01:12;10.90;1.00
12438;DHT22;6283;51.330;12.374;2023-04-15T12:03:47;11.20;99.90
12438;DHT22;6283;51.330;12.374;2023-04-15T12:13:54;11.00;99.90
12438;DHT22;6283;51.330;12.374;2023-04-15T12:16:21;11.00;99.90
12438;DHT22;6283;51.330;12.374;2023-04-15T12:18:51;11.20;1.00
12438;DHT22;6283;51.330;12.374;2023-04-15T12:21:21;11.00;99.90
12438;DHT22;6283;51.330;12.374;2023-04-15T12:23:55;11.00;99.90
12438;DHT22;6283;51.330;12.374;2023-04-15T12:26:30;11.20;99.90
12438;DHT22;6283;51.330;12.374;2023-04-15T12:29:00;11.30;99.90
12438;DHT22;6283;51.330;12.374;2023-04-15T12:31:26;11.10;99.90
12438;DHT22;6283;51.330;12.374;2023-04-15T12:33:55;11.20;99.90
12438;DHT22;6283;51.330;12.374;2023-04-15T12:36:20;11.50;99.90
12438;DHT22;6283;51.330;12.374;2023-04-15T12:38:46;11.60;99.90
12438;DHT22;6283;51.330;12.374;2023-04-15T12:41:12;11.30;99.90
12438;DHT22;6283;51.330;12.374;2023-04-15T12:43:37;11.60;99.90
12438;DHT22;6283;51.330;12.374;2023-04-15T12:46:03;11.60;99.90
12438;DHT22;6283;51.330;12.374;2023-04-15T12:48:29;11.50;99.90
12438;DHT22;6283;51.330;12.374;2023-04-15T12:50:55;11.80;99.90
12438;DHT22;6283;51.330;12.374;2023-04-15T12:53:21;11.50;99.90
12438;DHT22;6283;51.330;12.374;2023-04-15T12:55:46;11.70;99.90
12438;DHT22;6283;51.330;12.374;2023-04-15T12:58:12;12.00;99.90
12438;DHT22;6283;51.330;12.374;2023-04-15T13:00:38;11.90;99.90
12438;DHT22;6283;51.330;12.374;2023-04-15T13:03:04;11.90;99.90
12438;DHT22;6283;51.330;12.374;2023-04-15T13:05:29;11.80;99.90
12438;DHT22;6283;51.330;12.374;2023-04-15T13:07:55;12.00;99.90
12438;DHT22;6283;51.330;12.374;2023-04-15T13:10:21;11.90;99.90
12438;DHT22;6283;51.330;12.374;2023-04-15T13:12:48;12.00;99.90
12438;DHT22;6283;51.330;12.374;2023-04-15T13:15:17;11.70;99.90
12438;DHT22;6283;51.330;12.374;2023-04-15T13:17:45;11.80;99.90
12438;DHT22;6283;51.330;12.374;2023-04-15T13:20:11;11.80;99.90
12438;DHT22;6283;51.330;12.374;2023-04-15T13:22:36;12.00;99.90
12438;DHT22;6283;51.330;12.374;2023-04-15T13:25:02;11.80;99.90
12438;DHT22;6283;51.330;12.374;2023-04-15T13:27:27;12.10;99.90
12438;DHT22;6283;51.330;12.374;2023-04-15T13:29:53;11.80;99.90
12438;DHT22;6283;51.330;12.374;2023-04-15T13:32:19;11.80;99.90
12438;DHT22;6283;51.330;12.374;2023-04-15T13:34:45;12.00;99.90
12438;DHT22;6283;51.330;12.374;2023-04-15T13:37:10;11.80;99.90
12438;DHT22;6283;51.330;12.374;2023-04-15T13:39:36;11.80;99.90
12438;DHT22;6283;51.330;12.374;2023-04-15T13:42:02;12.00;99.90
12438;DHT22;6283;51.330;12.374;2023-04-15T13:44:28;11.80;99.90
12438;DHT22;6283;51.330;12.374;2023-04-15T13:46:53;12.00;99.90
12438;DHT22;6283;51.330;12.374;2023-04-15T13:49:19;12.00;99.90
12438;DHT22;6283;51.330;12.374;2023-04-15T13:51:45;11.90;99.90
12438;DHT22;6283;51.330;12.374;2023-04-15T13:54:11;12.00;99.90
12438;DHT22;6283;51.330;12.374;2023-04-15T13:56:36;11.90;99.90
12438;DHT22;6283;51.330;12.374;2023-04-15T13:59:02;11.70;99.90
12438;DHT22;6283;51.330;12.374;2023-04-15T14:01:28;11.90;99.90
12438;DHT22;6283;51.330;12.374;2023-04-15T14:03:54;12.00;99.90
12438;DHT22;6283;51.330;12.374;2023-04-15T14:06:20;12.00;99.90
12438;DHT22;6283;51.330;12.374;2023-04-15T14:08:46;12.00;99.90
12438;DHT22;6283;51.330;12.374;2023-04-15T14:11:12;12.20;99.90
12438;DHT22;6283;51.330;12.374;2023-04-15T14:13:37;11.90;99.90
12438;DHT22;6283;51.330;12.374;2023-04-15T14:16:03;11.90;99.90
12438;DHT22;6283;51.330;12.374;2023-04-15T14:18:29;11.80;99.90
12438;DHT22;6283;51.330;12.374;2023-04-15T14:20:55;12.00;99.90
12438;DHT22;6283;51.330;12.374;2023-04-15T14:23:21;11.80;99.90
12438;DHT22;6283;51.330;12.374;2023-04-15T14:25:47;11.80;99.90
12438;DHT22;6283;51.330;12.374;2023-04-15T14:28:13;11.90;99.90
12438;DHT22;6283;51.330;12.374;2023-04-15T14:30:38;12.10;99.90
12438;DHT22;6283;51.330;12.374;2023-04-15T14:33:04;11.70;99.90
12438;DHT22;6283;51.330;12.374;2023-04-15T14:35:30;12.00;99.90
12438;DHT22;6283;51.330;12.374;2023-04-15T14:37:56;11.70;99.90
12438;DHT22;6283;51.330;12.374;2023-04-15T14:40:22;11.70;99.90
12438;DHT22;6283;51.330;12.374;2023-04-15T14:42:48;11.70;99.90
12438;DHT22;6283;51.330;12.374;2023-04-15T14:45:13;11.80;99.90
12438;DHT22;6283;51.330;12.374;2023-04-15T14:47:39;11.70;99.90
12438;DHT22;6283;51.330;12.374;2023-04-15T14:50:05;11.90;99.90
12438;DHT22;6283;51.330;12.374;2023-04-15T14:52:31;11.80;99.90
12438;DHT22;6283;51.330;12.374;2023-04-15T14:55:07;11.90;99.90
12438;DHT22;6283;51.330;12.374;2023-04-15T14:57:35;11.90;99.90
12438;DHT22;6283;51.330;12.374;2023-04-15T15:00:02;12.00;99.90
12438;DHT22;6283;51.330;12.374;2023-04-15T15:02:28;11.70;99.90
12438;DHT22;6283;51.330;12.374;2023-04-15T15:04:54;12.00;99.90
12438;DHT22;6283;51.330;12.374;2023-04-15T15:07:21;11.70;99.90
12438;DHT22;6283;51.330;12.374;2023-04-15T15:09:46;11.90;99.90
12438;DHT22;6283;51.330;12.374;2023-04-15T15:12:12;11.70;99.90
12438;DHT22;6283;51.330;12.374;2023-04-15T15:14:38;11.80;99.90
12438;DHT22;6283;51.330;12.374;2023-04-15T15:17:03;11.90;99.90
12438;DHT22;6283;51.330;12.374;2023-04-15T15:19:29;12.00;99.90
12438;DHT22;6283;51.330;12.374;2023-04-15T15:21:55;12.00;99.90
12438;DHT22;6283;51.330;12.374;2023-04-15T15:24:20;11.90;99.90
12438;DHT22;6283;51.330;12.374;2023-04-15T15:26:46;11.90;99.90
12438;DHT22;6283;51.330;12.374;2023-04-15T15:29:12;12.00;99.90
12438;DHT22;6283;51.330;12.374;2023-04-15T15:31:37;11.90;99.90
12438;DHT22;6283;51.330;12.374;2023-04-15T15:34:03;11.70;99.90
12438;DHT22;6283;51.330;12.374;2023-04-15T15:36:29;12.00;99.90
12438;DHT22;6283;51.330;12.374;2023-04-15T15:38:58;11.90;99.90
12438;DHT22;6283;51.330;12.374;2023-04-15T15:41:24;11.80;99.90
12438;DHT22;6283;51.330;12.374;2023-04-15T15:43:50;12.10;99.90
12438;DHT22;6283;51.330;12.374;2023-04-15T15:46:16;11.90;99.90
12438;DHT22;6283;51.330;12.374;2023-04-15T15:48:42;11.70;99.90
12438;DHT22;6283;51.330;12.374;2023-04-15T15:51:08;11.90;99.90
12438;DHT22;6283;51.330;12.374;2023-04-15T15:53:34;11.70;99.90
12438;DHT22;6283;51.330;12.374;2023-04-15T15:56:00;11.70;99.90
12438;DHT22;6283;51.330;12.374;2023-04-15T15:58:25;12.00;99.90